sensor_id;sensor_type;location;lat;lon;timestamp;P1;durP1;ratioP1;P2;durP2;ratioP2
42168;SDS011;27838;43.858;25.974;2022-12-16T00:01:16;28.17;;;16.17;;
42168;SDS011;27838;43.858;25.974;2022-12-16T00:03:49;32.03;;;15.55;;
42168;SDS011;27838;43.858;25.974;2022-12-16T00:06:17;42.95;;;11.93;;
42168;SDS011;27838;43.858;25.974;2022-12-16T00:08:46;26.85;;;11.73;;
42168;SDS011;27838;43.858;25.974;2022-12-16T00:11:12;45.83;;;11.68;;
42168;SDS011;27838;43.858;25.974;2022-12-16T00:13:39;22.55;;;10.48;;
42168;SDS011;27838;43.858;25.974;2022-12-16T00:16:10;30.95;;;11.93;;
42168;SDS011;27838;43.858;25.974;2022-12-16T00:18:38;22.42;;;10.77;;
42168;SDS011;27838;43.858;25.974;2022-12-16T00:21:05;24.15;;;11.13;;
42168;SDS011;27838;43.858;25.974;2022-12-16T00:23:33;21.77;;;11.23;;
42168;SDS011;27838;43.858;25.974;2022-12-16T00:26:00;32.17;;;11.13;;
42168;SDS011;27838;43.858;25.974;2022-12-16T00:28:27;29.00;;;12.10;;
42168;SDS011;27838;43.858;25.974;2022-12-16T00:30:54;39.95;;;12.27;;
42168;SDS011;27838;43.858;25.974;2022-12-16T00:33:22;25.67;;;11.68;;
42168;SDS011;27838;43.858;25.974;2022-12-16T00:35:51;33.85;;;11.85;;
42168;SDS011;27838;43.858;25.974;2022-12-16T00:38:18;31.73;;;11.52;;
42168;SDS011;27838;43.858;25.974;2022-12-16T00:40:46;51.38;;;11.68;;
42168;SDS011;27838;43.858;25.974;2022-12-16T00:43:12;29.20;;;10.65;;
42168;SDS011;27838;43.858;25.974;2022-12-16T00:45:39;43.38;;;11.75;;
42168;SDS011;27838;43.858;25.974;2022-12-16T00:48:06;40.55;;;10.70;;
42168;SDS011;27838;43.858;25.974;2022-12-16T00:50:33;74.07;;;10.55;;
42168;SDS011;27838;43.858;25.974;2022-12-16T00:53:00;19.48;;;10.07;;
42168;SDS011;27838;43.858;25.974;2022-12-16T00:55:27;37.42;;;9.75;;
42168;SDS011;27838;43.858;25.974;2022-12-16T00:57:53;35.75;;;9.18;;
42168;SDS011;27838;43.858;25.974;2022-12-16T01:00:20;26.85;;;10.77;;
42168;SDS011;27838;43.858;25.974;2022-12-16T01:02:48;37.80;;;10.85;;
42168;SDS011;27838;43.858;25.974;2022-12-16T01:05:16;27.33;;;10.75;;
42168;SDS011;27838;43.858;25.974;2022-12-16T01:07:45;20.70;;;9.50;;
42168;SDS011;27838;43.858;25.974;2022-12-16T01:10:12;21.02;;;10.55;;
42168;SDS011;27838;43.858;25.974;2022-12-16T01:12:38;44.15;;;11.32;;
42168;SDS011;27838;43.858;25.974;2022-12-16T01:15:06;32.78;;;11.27;;
42168;SDS011;27838;43.858;25.974;2022-12-16T01:17:34;24.33;;;11.68;;
42168;SDS011;27838;43.858;25.974;2022-12-16T01:20:01;31.67;;;12.23;;
42168;SDS011;27838;43.858;25.974;2022-12-16T01:22:28;40.00;;;12.43;;
42168;SDS011;27838;43.858;25.974;2022-12-16T01:24:56;22.02;;;11.57;;
42168;SDS011;27838;43.858;25.974;2022-12-16T01:27:23;25.17;;;10.57;;
42168;SDS011;27838;43.858;25.974;2022-12-16T01:29:50;20.63;;;9.38;;
42168;SDS011;27838;43.858;25.974;2022-12-16T01:32:16;18.75;;;10.20;;
42168;SDS011;27838;43.858;25.974;2022-12-16T01:34:43;17.25;;;9.02;;
42168;SDS011;27838;43.858;25.974;2022-12-16T01:37:14;23.03;;;9.70;;
42168;SDS011;27838;43.858;25.974;2022-12-16T01:39:40;19.95;;;8.60;;
42168;SDS011;27838;43.858;25.974;2022-12-16T01:42:10;13.07;;;8.27;;
42168;SDS011;27838;43.858;25.974;2022-12-16T01:44:40;18.38;;;8.85;;
42168;SDS011;27838;43.858;25.974;2022-12-16T01:47:11;22.40;;;9.60;;
42168;SDS011;27838;43.858;25.974;2022-12-16T01:50:23;24.77;;;10.88;;
42168;SDS011;27838;43.858;25.974;2022-12-16T01:52:42;24.77;;;9.48;;
42168;SDS011;27838;43.858;25.974;2022-12-16T01:55:15;17.60;;;9.55;;
42168;SDS011;27838;43.858;25.974;2022-12-16T01:57:50;32.30;;;10.05;;
42168;SDS011;27838;43.858;25.974;2022-12-16T02:00:22;28.55;;;10.25;;
42168;SDS011;27838;43.858;25.974;2022-12-16T02:02:49;20.35;;;9.95;;
42168;SDS011;27838;43.858;25.974;2022-12-16T02:05:18;31.83;;;11.18;;
42168;SDS011;27838;43.858;25.974;2022-12-16T02:37:59;30.70;;;12.75;;
42168;SDS011;27838;43.858;25.974;2022-12-16T02:40:39;98.40;;;14.88;;
42168;SDS011;27838;43.858;25.974;2022-12-16T02:43:21;56.30;;;13.48;;
42168;SDS011;27838;43.858;25.974;2022-12-16T02:46:09;63.35;;;13.80;;
42168;SDS011;27838;43.858;25.974;2022-12-16T02:48:36;49.78;;;15.07;;
42168;SDS011;27838;43.858;25.974;2022-12-16T02:51:03;57.47;;;13.57;;
42168;SDS011;27838;43.858;25.974;2022-12-16T02:53:30;61.28;;;11.98;;
42168;SDS011;27838;43.858;25.974;2022-12-16T02:59:07;42.63;;;12.50;;
42168;SDS011;27838;43.858;25.974;2022-12-16T03:04:45;45.03;;;13.73;;
42168;SDS011;27838;43.858;25.974;2022-12-16T03:07:09;31.15;;;12.38;;
42168;SDS011;27838;43.858;25.974;2022-12-16T03:09:38;35.63;;;12.65;;
42168;SDS011;27838;43.858;25.974;2022-12-16T03:12:10;45.50;;;12.95;;
42168;SDS011;27838;43.858;25.974;2022-12-16T03:14:40;28.50;;;11.00;;
42168;SDS011;27838;43.858;25.974;2022-12-16T03:17:10;53.33;;;14.55;;
42168;SDS011;27838;43.858;25.974;2022-12-16T03:19:39;54.55;;;11.65;;
42168;SDS011;27838;43.858;25.974;2022-12-16T03:22:17;29.63;;;11.30;;
42168;SDS011;27838;43.858;25.974;2022-12-16T03:24:48;35.03;;;12.57;;
42168;SDS011;27838;43.858;25.974;2022-12-16T03:29:58;30.92;;;13.65;;
42168;SDS011;27838;43.858;25.974;2022-12-16T03:35:24;30.88;;;15.30;;
42168;SDS011;27838;43.858;25.974;2022-12-16T03:37:56;38.20;;;12.98;;
42168;SDS011;27838;43.858;25.974;2022-12-16T03:40:24;37.13;;;12.80;;
42168;SDS011;27838;43.858;25.974;2022-12-16T03:42:53;34.35;;;13.98;;
42168;SDS011;27838;43.858;25.974;2022-12-16T03:45:24;46.65;;;13.93;;
42168;SDS011;27838;43.858;25.974;2022-12-16T03:47:55;37.30;;;11.93;;
42168;SDS011;27838;43.858;25.974;2022-12-16T03:50:27;46.95;;;13.48;;
42168;SDS011;27838;43.858;25.974;2022-12-16T03:52:57;33.05;;;12.70;;
42168;SDS011;27838;43.858;25.974;2022-12-16T03:55:24;46.78;;;12.70;;
42168;SDS011;27838;43.858;25.974;2022-12-16T03:57:51;36.47;;;12.27;;
42168;SDS011;27838;43.858;25.974;2022-12-16T04:00:18;43.55;;;11.52;;
42168;SDS011;27838;43.858;25.974;2022-12-16T04:02:45;40.90;;;11.48;;
42168;SDS011;27838;43.858;25.974;2022-12-16T04:05:12;52.33;;;12.23;;
42168;SDS011;27838;43.858;25.974;2022-12-16T04:07:39;37.08;;;12.48;;
42168;SDS011;27838;43.858;25.974;2022-12-16T04:10:05;51.05;;;17.02;;
42168;SDS011;27838;43.858;25.974;2022-12-16T04:12:33;33.67;;;12.45;;
42168;SDS011;27838;43.858;25.974;2022-12-16T04:15:17;37.70;;;12.07;;
42168;SDS011;27838;43.858;25.974;2022-12-16T04:18:01;64.32;;;12.63;;
42168;SDS011;27838;43.858;25.974;2022-12-16T04:20:45;44.88;;;12.20;;
42168;SDS011;27838;43.858;25.974;2022-12-16T04:23:34;52.00;;;12.60;;
42168;SDS011;27838;43.858;25.974;2022-12-16T04:26:30;54.40;;;12.85;;
42168;SDS011;27838;43.858;25.974;2022-12-16T04:29:16;56.83;;;12.30;;
42168;SDS011;27838;43.858;25.974;2022-12-16T04:31:43;50.28;;;13.10;;
42168;SDS011;27838;43.858;25.974;2022-12-16T04:34:09;39.83;;;13.05;;
42168;SDS011;27838;43.858;25.974;2022-12-16T04:36:59;44.15;;;13.65;;
42168;SDS011;27838;43.858;25.974;2022-12-16T04:39:45;30.30;;;14.68;;
42168;SDS011;27838;43.858;25.974;2022-12-16T04:42:30;33.38;;;13.02;;
42168;SDS011;27838;43.858;25.974;2022-12-16T04:45:15;27.23;;;13.77;;
42168;SDS011;27838;43.858;25.974;2022-12-16T04:47:56;45.95;;;14.07;;
42168;SDS011;27838;43.858;25.974;2022-12-16T04:50:40;31.27;;;13.82;;
42168;SDS011;27838;43.858;25.974;2022-12-16T04:53:26;33.50;;;12.88;;
42168;SDS011;27838;43.858;25.974;2022-12-16T04:56:10;30.02;;;12.65;;
42168;SDS011;27838;43.858;25.974;2022-12-16T04:58:55;39.45;;;13.00;;
42168;SDS011;27838;43.858;25.974;2022-12-16T05:01:39;48.80;;;13.70;;
42168;SDS011;27838;43.858;25.974;2022-12-16T05:04:23;61.58;;;13.38;;
42168;SDS011;27838;43.858;25.974;2022-12-16T05:07:09;33.55;;;15.30;;
42168;SDS011;27838;43.858;25.974;2022-12-16T05:09:54;58.75;;;12.82;;
42168;SDS011;27838;43.858;25.974;2022-12-16T05:12:38;53.25;;;12.63;;
42168;SDS011;27838;43.858;25.974;2022-12-16T05:15:21;70.22;;;11.18;;
42168;SDS011;27838;43.858;25.974;2022-12-16T05:18:06;33.22;;;11.15;;
42168;SDS011;27838;43.858;25.974;2022-12-16T05:20:52;37.15;;;12.05;;
42168;SDS011;27838;43.858;25.974;2022-12-16T05:23:36;38.97;;;13.18;;
42168;SDS011;27838;43.858;25.974;2022-12-16T05:26:20;52.53;;;14.05;;
42168;SDS011;27838;43.858;25.974;2022-12-16T05:29:04;87.10;;;14.15;;
42168;SDS011;27838;43.858;25.974;2022-12-16T05:31:48;46.45;;;12.82;;
42168;SDS011;27838;43.858;25.974;2022-12-16T05:34:32;50.38;;;17.92;;
42168;SDS011;27838;43.858;25.974;2022-12-16T05:37:15;55.50;;;15.52;;
42168;SDS011;27838;43.858;25.974;2022-12-16T05:39:59;46.83;;;17.08;;
42168;SDS011;27838;43.858;25.974;2022-12-16T05:42:44;38.40;;;13.50;;
42168;SDS011;27838;43.858;25.974;2022-12-16T05:45:30;47.50;;;13.07;;
42168;SDS011;27838;43.858;25.974;2022-12-16T05:48:14;54.80;;;11.60;;
42168;SDS011;27838;43.858;25.974;2022-12-16T05:50:58;38.05;;;12.45;;
42168;SDS011;27838;43.858;25.974;2022-12-16T05:53:42;39.55;;;12.73;;
42168;SDS011;27838;43.858;25.974;2022-12-16T05:56:26;51.90;;;12.68;;
42168;SDS011;27838;43.858;25.974;2022-12-16T05:59:10;41.45;;;13.70;;
42168;SDS011;27838;43.858;25.974;2022-12-16T06:01:54;60.10;;;14.15;;
42168;SDS011;27838;43.858;25.974;2022-12-16T06:04:38;38.33;;;13.18;;
42168;SDS011;27838;43.858;25.974;2022-12-16T06:07:22;46.50;;;13.68;;
42168;SDS011;27838;43.858;25.974;2022-12-16T06:10:06;39.30;;;11.57;;
42168;SDS011;27838;43.858;25.974;2022-12-16T06:12:50;41.42;;;12.98;;
42168;SDS011;27838;43.858;25.974;2022-12-16T06:15:33;123.15;;;16.23;;
42168;SDS011;27838;43.858;25.974;2022-12-16T06:18:18;54.50;;;14.82;;
42168;SDS011;27838;43.858;25.974;2022-12-16T06:21:02;52.85;;;18.33;;
42168;SDS011;27838;43.858;25.974;2022-12-16T06:23:47;83.45;;;16.35;;
42168;SDS011;27838;43.858;25.974;2022-12-16T06:26:31;86.72;;;21.30;;
42168;SDS011;27838;43.858;25.974;2022-12-16T06:29:14;64.75;;;17.10;;
42168;SDS011;27838;43.858;25.974;2022-12-16T06:31:58;70.57;;;17.08;;
42168;SDS011;27838;43.858;25.974;2022-12-16T06:34:43;72.45;;;16.73;;
42168;SDS011;27838;43.858;25.974;2022-12-16T06:37:26;67.20;;;16.85;;
42168;SDS011;27838;43.858;25.974;2022-12-16T06:40:10;110.47;;;18.50;;
42168;SDS011;27838;43.858;25.974;2022-12-16T06:42:54;50.17;;;16.70;;
42168;SDS011;27838;43.858;25.974;2022-12-16T06:45:38;89.28;;;18.88;;
42168;SDS011;27838;43.858;25.974;2022-12-16T06:48:23;86.60;;;14.57;;
42168;SDS011;27838;43.858;25.974;2022-12-16T06:51:06;75.65;;;16.17;;
42168;SDS011;27838;43.858;25.974;2022-12-16T06:53:50;51.97;;;14.38;;
42168;SDS011;27838;43.858;25.974;2022-12-16T06:56:40;65.88;;;15.13;;
42168;SDS011;27838;43.858;25.974;2022-12-16T06:59:24;88.45;;;17.27;;
42168;SDS011;27838;43.858;25.974;2022-12-16T07:02:09;81.85;;;18.27;;
42168;SDS011;27838;43.858;25.974;2022-12-16T07:04:53;70.20;;;17.27;;
42168;SDS011;27838;43.858;25.974;2022-12-16T07:07:37;57.15;;;16.77;;
42168;SDS011;27838;43.858;25.974;2022-12-16T07:10:21;48.47;;;17.13;;
42168;SDS011;27838;43.858;25.974;2022-12-16T07:13:05;53.67;;;17.08;;
42168;SDS011;27838;43.858;25.974;2022-12-16T07:15:49;45.70;;;17.95;;
42168;SDS011;27838;43.858;25.974;2022-12-16T07:18:33;72.40;;;15.68;;
42168;SDS011;27838;43.858;25.974;2022-12-16T07:21:17;113.60;;;16.73;;
42168;SDS011;27838;43.858;25.974;2022-12-16T07:24:01;58.45;;;18.40;;
42168;SDS011;27838;43.858;25.974;2022-12-16T07:26:45;87.03;;;17.70;;
42168;SDS011;27838;43.858;25.974;2022-12-16T07:29:29;43.42;;;17.98;;
42168;SDS011;27838;43.858;25.974;2022-12-16T07:32:13;52.92;;;18.08;;
42168;SDS011;27838;43.858;25.974;2022-12-16T07:34:57;70.45;;;17.08;;
42168;SDS011;27838;43.858;25.974;2022-12-16T07:37:46;108.68;;;18.17;;
42168;SDS011;27838;43.858;25.974;2022-12-16T07:40:30;65.45;;;18.00;;
42168;SDS011;27838;43.858;25.974;2022-12-16T07:43:14;64.88;;;18.15;;
42168;SDS011;27838;43.858;25.974;2022-12-16T07:45:58;44.95;;;16.73;;
42168;SDS011;27838;43.858;25.974;2022-12-16T07:48:42;27.13;;;15.73;;
42168;SDS011;27838;43.858;25.974;2022-12-16T07:51:25;74.82;;;21.73;;
42168;SDS011;27838;43.858;25.974;2022-12-16T07:54:09;47.63;;;23.67;;
42168;SDS011;27838;43.858;25.974;2022-12-16T07:56:53;62.05;;;20.30;;
42168;SDS011;27838;43.858;25.974;2022-12-16T07:59:37;67.22;;;19.38;;
42168;SDS011;27838;43.858;25.974;2022-12-16T08:02:21;44.05;;;18.60;;
42168;SDS011;27838;43.858;25.974;2022-12-16T08:05:05;75.22;;;18.58;;
42168;SDS011;27838;43.858;25.974;2022-12-16T08:07:49;47.85;;;16.67;;
42168;SDS011;27838;43.858;25.974;2022-12-16T08:10:33;81.38;;;21.42;;
42168;SDS011;27838;43.858;25.974;2022-12-16T08:13:13;63.70;;;20.80;;
42168;SDS011;27838;43.858;25.974;2022-12-16T08:15:57;82.55;;;21.02;;
42168;SDS011;27838;43.858;25.974;2022-12-16T08:18:41;63.15;;;23.23;;
42168;SDS011;27838;43.858;25.974;2022-12-16T08:21:34;61.17;;;23.38;;
42168;SDS011;27838;43.858;25.974;2022-12-16T08:24:18;83.05;;;26.65;;
42168;SDS011;27838;43.858;25.974;2022-12-16T08:27:02;71.30;;;24.15;;
42168;SDS011;27838;43.858;25.974;2022-12-16T08:29:46;59.17;;;23.05;;
42168;SDS011;27838;43.858;25.974;2022-12-16T08:32:30;62.03;;;23.08;;
42168;SDS011;27838;43.858;25.974;2022-12-16T08:35:13;63.95;;;21.25;;
42168;SDS011;27838;43.858;25.974;2022-12-16T08:37:57;52.22;;;22.88;;
42168;SDS011;27838;43.858;25.974;2022-12-16T08:40:44;59.00;;;23.80;;
42168;SDS011;27838;43.858;25.974;2022-12-16T08:43:32;54.72;;;26.27;;
42168;SDS011;27838;43.858;25.974;2022-12-16T08:46:18;54.63;;;24.48;;
42168;SDS011;27838;43.858;25.974;2022-12-16T08:49:03;70.20;;;26.10;;
42168;SDS011;27838;43.858;25.974;2022-12-16T08:51:47;114.68;;;26.55;;
42168;SDS011;27838;43.858;25.974;2022-12-16T08:54:31;81.47;;;25.15;;
42168;SDS011;27838;43.858;25.974;2022-12-16T08:57:15;86.53;;;26.20;;
42168;SDS011;27838;43.858;25.974;2022-12-16T09:00:01;98.00;;;27.88;;
42168;SDS011;27838;43.858;25.974;2022-12-16T09:02:46;68.82;;;22.92;;
42168;SDS011;27838;43.858;25.974;2022-12-16T09:05:29;74.93;;;21.35;;
42168;SDS011;27838;43.858;25.974;2022-12-16T09:08:13;70.82;;;22.95;;
42168;SDS011;27838;43.858;25.974;2022-12-16T09:10:54;71.97;;;23.20;;
42168;SDS011;27838;43.858;25.974;2022-12-16T09:13:42;83.18;;;22.30;;
42168;SDS011;27838;43.858;25.974;2022-12-16T09:16:26;58.22;;;22.08;;
42168;SDS011;27838;43.858;25.974;2022-12-16T09:19:10;72.00;;;24.90;;
42168;SDS011;27838;43.858;25.974;2022-12-16T09:21:54;81.45;;;22.50;;
42168;SDS011;27838;43.858;25.974;2022-12-16T09:24:40;65.78;;;23.02;;
42168;SDS011;27838;43.858;25.974;2022-12-16T09:27:24;48.78;;;21.85;;
42168;SDS011;27838;43.858;25.974;2022-12-16T09:30:08;63.78;;;20.83;;
42168;SDS011;27838;43.858;25.974;2022-12-16T09:32:53;45.15;;;24.52;;
42168;SDS011;27838;43.858;25.974;2022-12-16T09:35:37;47.55;;;22.08;;
42168;SDS011;27838;43.858;25.974;2022-12-16T09:38:21;49.03;;;23.48;;
42168;SDS011;27838;43.858;25.974;2022-12-16T09:47:16;56.75;;;28.17;;
42168;SDS011;27838;43.858;25.974;2022-12-16T09:50:18;57.90;;;26.88;;
42168;SDS011;27838;43.858;25.974;2022-12-16T09:53:07;55.30;;;26.30;;
42168;SDS011;27838;43.858;25.974;2022-12-16T09:55:55;52.20;;;25.83;;
42168;SDS011;27838;43.858;25.974;2022-12-16T09:58:45;54.90;;;28.30;;
42168;SDS011;27838;43.858;25.974;2022-12-16T10:01:36;50.10;;;24.98;;
42168;SDS011;27838;43.858;25.974;2022-12-16T10:04:22;58.50;;;30.00;;
42168;SDS011;27838;43.858;25.974;2022-12-16T10:07:07;80.95;;;32.75;;
42168;SDS011;27838;43.858;25.974;2022-12-16T10:10:05;67.13;;;31.88;;
42168;SDS011;27838;43.858;25.974;2022-12-16T10:16:47;69.35;;;33.45;;
42168;SDS011;27838;43.858;25.974;2022-12-16T10:19:45;71.65;;;33.03;;
42168;SDS011;27838;43.858;25.974;2022-12-16T10:22:36;64.10;;;29.95;;
42168;SDS011;27838;43.858;25.974;2022-12-16T10:25:38;64.38;;;30.17;;
42168;SDS011;27838;43.858;25.974;2022-12-16T10:31:19;70.00;;;33.60;;
42168;SDS011;27838;43.858;25.974;2022-12-16T10:34:10;72.47;;;33.33;;
42168;SDS011;27838;43.858;25.974;2022-12-16T10:36:59;72.72;;;34.72;;
42168;SDS011;27838;43.858;25.974;2022-12-16T10:39:52;81.90;;;36.17;;
42168;SDS011;27838;43.858;25.974;2022-12-16T10:42:43;82.35;;;38.13;;
42168;SDS011;27838;43.858;25.974;2022-12-16T10:45:34;77.68;;;36.90;;
42168;SDS011;27838;43.858;25.974;2022-12-16T10:48:26;78.65;;;37.05;;
42168;SDS011;27838;43.858;25.974;2022-12-16T10:51:14;80.35;;;37.80;;
42168;SDS011;27838;43.858;25.974;2022-12-16T10:57:04;74.45;;;37.40;;
42168;SDS011;27838;43.858;25.974;2022-12-16T11:00:13;76.97;;;36.47;;
42168;SDS011;27838;43.858;25.974;2022-12-16T11:03:19;82.15;;;37.53;;
42168;SDS011;27838;43.858;25.974;2022-12-16T11:06:05;75.57;;;35.20;;
42168;SDS011;27838;43.858;25.974;2022-12-16T11:08:50;77.63;;;37.20;;
42168;SDS011;27838;43.858;25.974;2022-12-16T11:11:34;87.80;;;39.65;;
42168;SDS011;27838;43.858;25.974;2022-12-16T11:14:26;89.90;;;41.60;;
42168;SDS011;27838;43.858;25.974;2022-12-16T11:17:16;93.13;;;42.40;;
42168;SDS011;27838;43.858;25.974;2022-12-16T11:20:25;100.07;;;43.63;;
42168;SDS011;27838;43.858;25.974;2022-12-16T11:23:22;88.88;;;43.67;;
42168;SDS011;27838;43.858;25.974;2022-12-16T11:26:17;101.70;;;47.00;;
42168;SDS011;27838;43.858;25.974;2022-12-16T11:29:15;103.57;;;46.80;;
42168;SDS011;27838;43.858;25.974;2022-12-16T11:32:05;96.30;;;46.13;;
42168;SDS011;27838;43.858;25.974;2022-12-16T11:35:09;89.55;;;46.10;;
42168;SDS011;27838;43.858;25.974;2022-12-16T11:37:58;89.00;;;45.10;;
42168;SDS011;27838;43.858;25.974;2022-12-16T11:40:44;78.88;;;39.47;;
42168;SDS011;27838;43.858;25.974;2022-12-16T11:43:35;69.63;;;37.38;;
42168;SDS011;27838;43.858;25.974;2022-12-16T11:46:26;61.35;;;32.58;;
42168;SDS011;27838;43.858;25.974;2022-12-16T11:49:16;71.00;;;33.65;;
42168;SDS011;27838;43.858;25.974;2022-12-16T11:52:10;74.05;;;33.70;;
42168;SDS011;27838;43.858;25.974;2022-12-16T11:55:40;69.60;;;31.30;;
42168;SDS011;27838;43.858;25.974;2022-12-16T11:58:32;68.75;;;32.92;;
42168;SDS011;27838;43.858;25.974;2022-12-16T12:04:20;61.95;;;32.60;;
42168;SDS011;27838;43.858;25.974;2022-12-16T12:07:40;69.60;;;34.20;;
42168;SDS011;27838;43.858;25.974;2022-12-16T12:13:35;51.92;;;29.75;;
42168;SDS011;27838;43.858;25.974;2022-12-16T12:22:46;55.95;;;28.90;;
42168;SDS011;27838;43.858;25.974;2022-12-16T12:25:39;53.00;;;28.08;;
42168;SDS011;27838;43.858;25.974;2022-12-16T12:28:41;51.03;;;28.00;;
42168;SDS011;27838;43.858;25.974;2022-12-16T12:37:49;70.78;;;31.10;;
42168;SDS011;27838;43.858;25.974;2022-12-16T12:46:44;57.92;;;30.13;;
42168;SDS011;27838;43.858;25.974;2022-12-16T12:58:52;57.30;;;29.10;;
42168;SDS011;27838;43.858;25.974;2022-12-16T13:01:41;51.63;;;28.00;;
42168;SDS011;27838;43.858;25.974;2022-12-16T13:04:27;63.28;;;32.55;;
42168;SDS011;27838;43.858;25.974;2022-12-16T13:07:13;60.08;;;29.05;;
42168;SDS011;27838;43.858;25.974;2022-12-16T13:16:03;61.65;;;27.92;;
42168;SDS011;27838;43.858;25.974;2022-12-16T13:28:36;46.88;;;24.38;;
42168;SDS011;27838;43.858;25.974;2022-12-16T13:31:22;52.70;;;26.75;;
42168;SDS011;27838;43.858;25.974;2022-12-16T13:37:00;45.92;;;24.65;;
42168;SDS011;27838;43.858;25.974;2022-12-16T13:46:21;47.17;;;23.40;;
42168;SDS011;27838;43.858;25.974;2022-12-16T13:52:26;48.90;;;26.48;;
42168;SDS011;27838;43.858;25.974;2022-12-16T13:55:16;48.97;;;25.33;;
42168;SDS011;27838;43.858;25.974;2022-12-16T13:58:37;52.35;;;25.98;;
42168;SDS011;27838;43.858;25.974;2022-12-16T14:01:36;48.97;;;26.35;;
42168;SDS011;27838;43.858;25.974;2022-12-16T14:04:30;52.80;;;27.60;;
42168;SDS011;27838;43.858;25.974;2022-12-16T14:07:18;59.35;;;29.75;;
42168;SDS011;27838;43.858;25.974;2022-12-16T14:10:05;61.85;;;31.63;;
42168;SDS011;27838;43.858;25.974;2022-12-16T14:15:46;62.72;;;32.20;;
42168;SDS011;27838;43.858;25.974;2022-12-16T14:22:13;62.75;;;32.50;;
42168;SDS011;27838;43.858;25.974;2022-12-16T14:25:18;61.05;;;29.88;;
42168;SDS011;27838;43.858;25.974;2022-12-16T14:28:26;62.25;;;33.00;;
42168;SDS011;27838;43.858;25.974;2022-12-16T14:31:35;65.25;;;32.90;;
42168;SDS011;27838;43.858;25.974;2022-12-16T14:34:23;83.40;;;36.45;;
42168;SDS011;27838;43.858;25.974;2022-12-16T14:40:00;81.50;;;40.07;;
42168;SDS011;27838;43.858;25.974;2022-12-16T14:42:45;83.35;;;40.08;;
42168;SDS011;27838;43.858;25.974;2022-12-16T14:45:34;85.88;;;40.88;;
42168;SDS011;27838;43.858;25.974;2022-12-16T14:51:25;86.10;;;40.90;;
42168;SDS011;27838;43.858;25.974;2022-12-16T14:54:15;80.32;;;38.95;;
42168;SDS011;27838;43.858;25.974;2022-12-16T14:57:02;102.32;;;47.78;;
42168;SDS011;27838;43.858;25.974;2022-12-16T14:59:46;85.82;;;40.78;;
42168;SDS011;27838;43.858;25.974;2022-12-16T15:02:37;86.63;;;39.03;;
42168;SDS011;27838;43.858;25.974;2022-12-16T15:05:27;84.15;;;39.35;;
42168;SDS011;27838;43.858;25.974;2022-12-16T15:08:16;88.45;;;39.65;;
42168;SDS011;27838;43.858;25.974;2022-12-16T15:11:01;81.22;;;38.13;;
42168;SDS011;27838;43.858;25.974;2022-12-16T15:13:48;72.95;;;36.78;;
42168;SDS011;27838;43.858;25.974;2022-12-16T15:16:37;73.22;;;34.45;;
42168;SDS011;27838;43.858;25.974;2022-12-16T15:19:22;75.65;;;34.63;;
42168;SDS011;27838;43.858;25.974;2022-12-16T15:22:13;82.68;;;36.72;;
42168;SDS011;27838;43.858;25.974;2022-12-16T15:24:59;68.78;;;31.80;;
42168;SDS011;27838;43.858;25.974;2022-12-16T15:27:51;65.82;;;33.65;;
42168;SDS011;27838;43.858;25.974;2022-12-16T15:30:45;69.50;;;34.47;;
42168;SDS011;27838;43.858;25.974;2022-12-16T15:33:34;67.95;;;34.35;;
42168;SDS011;27838;43.858;25.974;2022-12-16T15:36:27;67.80;;;33.53;;
42168;SDS011;27838;43.858;25.974;2022-12-16T15:42:18;69.50;;;31.80;;
42168;SDS011;27838;43.858;25.974;2022-12-16T15:45:04;68.55;;;31.17;;
42168;SDS011;27838;43.858;25.974;2022-12-16T15:47:58;69.05;;;30.88;;
42168;SDS011;27838;43.858;25.974;2022-12-16T15:50:44;73.05;;;31.48;;
42168;SDS011;27838;43.858;25.974;2022-12-16T15:53:36;69.95;;;32.13;;
42168;SDS011;27838;43.858;25.974;2022-12-16T15:56:40;66.72;;;30.55;;
42168;SDS011;27838;43.858;25.974;2022-12-16T15:59:27;62.10;;;31.73;;
42168;SDS011;27838;43.858;25.974;2022-12-16T16:02:28;47.60;;;25.55;;
42168;SDS011;27838;43.858;25.974;2022-12-16T16:05:14;52.42;;;26.00;;
42168;SDS011;27838;43.858;25.974;2022-12-16T16:08:01;63.20;;;27.10;;
42168;SDS011;27838;43.858;25.974;2022-12-16T16:10:45;58.50;;;27.85;;
42168;SDS011;27838;43.858;25.974;2022-12-16T16:13:29;74.50;;;35.03;;
42168;SDS011;27838;43.858;25.974;2022-12-16T16:16:13;75.18;;;28.63;;
42168;SDS011;27838;43.858;25.974;2022-12-16T16:18:58;60.67;;;29.15;;
42168;SDS011;27838;43.858;25.974;2022-12-16T16:21:43;61.03;;;27.75;;
42168;SDS011;27838;43.858;25.974;2022-12-16T16:24:28;61.35;;;26.75;;
42168;SDS011;27838;43.858;25.974;2022-12-16T16:27:12;63.97;;;27.55;;
42168;SDS011;27838;43.858;25.974;2022-12-16T16:29:58;62.95;;;27.63;;
42168;SDS011;27838;43.858;25.974;2022-12-16T16:32:43;94.85;;;27.13;;
42168;SDS011;27838;43.858;25.974;2022-12-16T16:35:28;76.63;;;27.60;;
42168;SDS011;27838;43.858;25.974;2022-12-16T16:38:13;71.22;;;29.92;;
42168;SDS011;27838;43.858;25.974;2022-12-16T16:40:57;77.10;;;26.95;;
42168;SDS011;27838;43.858;25.974;2022-12-16T16:43:41;70.38;;;27.33;;
42168;SDS011;27838;43.858;25.974;2022-12-16T16:49:32;66.68;;;23.67;;
42168;SDS011;27838;43.858;25.974;2022-12-16T16:52:15;103.95;;;26.17;;
42168;SDS011;27838;43.858;25.974;2022-12-16T16:55:02;66.93;;;26.00;;
42168;SDS011;27838;43.858;25.974;2022-12-16T16:57:46;53.92;;;24.70;;
42168;SDS011;27838;43.858;25.974;2022-12-16T17:00:30;66.78;;;24.25;;
42168;SDS011;27838;43.858;25.974;2022-12-16T17:03:14;71.00;;;24.67;;
42168;SDS011;27838;43.858;25.974;2022-12-16T17:05:59;53.42;;;24.05;;
42168;SDS011;27838;43.858;25.974;2022-12-16T17:08:43;78.40;;;26.58;;
42168;SDS011;27838;43.858;25.974;2022-12-16T17:11:27;69.22;;;27.55;;
42168;SDS011;27838;43.858;25.974;2022-12-16T17:14:12;62.60;;;27.88;;
42168;SDS011;27838;43.858;25.974;2022-12-16T17:17:01;59.15;;;29.10;;
42168;SDS011;27838;43.858;25.974;2022-12-16T17:19:45;66.40;;;27.40;;
42168;SDS011;27838;43.858;25.974;2022-12-16T17:22:30;58.90;;;28.23;;
42168;SDS011;27838;43.858;25.974;2022-12-16T17:25:14;74.55;;;28.55;;
42168;SDS011;27838;43.858;25.974;2022-12-16T17:27:59;71.80;;;28.02;;
42168;SDS011;27838;43.858;25.974;2022-12-16T17:30:43;62.35;;;27.33;;
42168;SDS011;27838;43.858;25.974;2022-12-16T17:33:28;52.42;;;26.05;;
42168;SDS011;27838;43.858;25.974;2022-12-16T17:36:12;83.72;;;32.95;;
42168;SDS011;27838;43.858;25.974;2022-12-16T17:38:58;96.95;;;38.55;;
42168;SDS011;27838;43.858;25.974;2022-12-16T17:41:43;110.40;;;41.47;;
42168;SDS011;27838;43.858;25.974;2022-12-16T17:44:39;113.22;;;43.90;;
42168;SDS011;27838;43.858;25.974;2022-12-16T17:47:23;103.18;;;41.35;;
42168;SDS011;27838;43.858;25.974;2022-12-16T17:50:07;90.00;;;37.72;;
42168;SDS011;27838;43.858;25.974;2022-12-16T17:52:52;101.45;;;40.58;;
42168;SDS011;27838;43.858;25.974;2022-12-16T17:55:41;84.60;;;36.90;;
42168;SDS011;27838;43.858;25.974;2022-12-16T17:58:32;82.95;;;35.10;;